sensor_id;sensor_type;location;lat;lon;timestamp;P1;durP1;ratioP1;P2;durP2;ratioP2
18738;SDS011;9498;51.862;19.460;2024-03-22T00:02:09;52.00;;;27.17;;
18738;SDS011;9498;51.862;19.460;2024-03-22T00:04:35;51.90;;;25.80;;
18738;SDS011;9498;51.862;19.460;2024-03-22T00:07:01;54.13;;;26.80;;
18738;SDS011;9498;51.862;19.460;2024-03-22T00:09:27;62.67;;;33.42;;
18738;SDS011;9498;51.862;19.460;2024-03-22T00:11:55;55.63;;;27.33;;
18738;SDS011;9498;51.862;19.460;2024-03-22T00:14:21;55.57;;;26.83;;
18738;SDS011;9498;51.862;19.460;2024-03-22T00:16:47;54.33;;;26.33;;
18738;SDS011;9498;51.862;19.460;2024-03-22T00:19:13;52.33;;;26.50;;
18738;SDS011;9498;51.862;19.460;2024-03-22T00:21:39;55.83;;;26.67;;
18738;SDS011;9498;51.862;19.460;2024-03-22T00:24:05;57.83;;;29.10;;
18738;SDS011;9498;51.862;19.460;2024-03-22T00:26:31;66.65;;;33.63;;
18738;SDS011;9498;51.862;19.460;2024-03-22T00:28:59;56.77;;;29.07;;
18738;SDS011;9498;51.862;19.460;2024-03-22T00:31:25;62.17;;;28.23;;
18738;SDS011;9498;51.862;19.460;2024-03-22T00:33:51;66.07;;;29.03;;
18738;SDS011;9498;51.862;19.460;2024-03-22T00:36:16;53.40;;;26.17;;
18738;SDS011;9498;51.862;19.460;2024-03-22T00:38:42;54.83;;;27.67;;
18738;SDS011;9498;51.862;19.460;2024-03-22T00:41:08;50.77;;;25.73;;
18738;SDS011;9498;51.862;19.460;2024-03-22T00:43:34;52.43;;;25.87;;
18738;SDS011;9498;51.862;19.460;2024-03-22T00:46:02;53.70;;;27.30;;
18738;SDS011;9498;51.862;19.460;2024-03-22T00:48:28;53.93;;;26.83;;
18738;SDS011;9498;51.862;19.460;2024-03-22T00:50:54;55.60;;;26.47;;
18738;SDS011;9498;51.862;19.460;2024-03-22T00:53:19;55.60;;;27.70;;
18738;SDS011;9498;51.862;19.460;2024-03-22T00:55:45;47.67;;;24.57;;
18738;SDS011;9498;51.862;19.460;2024-03-22T00:58:11;45.77;;;24.07;;
18738;SDS011;9498;51.862;19.460;2024-03-22T01:00:37;47.10;;;23.40;;
18738;SDS011;9498;51.862;19.460;2024-03-22T01:03:06;45.07;;;23.20;;
18738;SDS011;9498;51.862;19.460;2024-03-22T01:05:31;45.87;;;22.73;;
18738;SDS011;9498;51.862;19.460;2024-03-22T01:07:57;42.97;;;21.97;;
18738;SDS011;9498;51.862;19.460;2024-03-22T01:10:23;43.90;;;22.00;;
18738;SDS011;9498;51.862;19.460;2024-03-22T01:12:49;42.20;;;20.30;;
18738;SDS011;9498;51.862;19.460;2024-03-22T01:15:14;40.33;;;20.23;;
18738;SDS011;9498;51.862;19.460;2024-03-22T01:17:40;38.17;;;19.67;;
18738;SDS011;9498;51.862;19.460;2024-03-22T01:20:09;42.90;;;19.83;;
18738;SDS011;9498;51.862;19.460;2024-03-22T01:22:35;42.37;;;20.93;;
18738;SDS011;9498;51.862;19.460;2024-03-22T01:25:01;36.93;;;19.33;;
18738;SDS011;9498;51.862;19.460;2024-03-22T01:27:27;39.40;;;19.63;;
18738;SDS011;9498;51.862;19.460;2024-03-22T01:29:52;39.90;;;21.98;;
18738;SDS011;9498;51.862;19.460;2024-03-22T01:32:18;35.57;;;19.40;;
18738;SDS011;9498;51.862;19.460;2024-03-22T01:34:44;40.00;;;20.00;;
18738;SDS011;9498;51.862;19.460;2024-03-22T01:37:12;34.77;;;18.50;;
18738;SDS011;9498;51.862;19.460;2024-03-22T01:39:38;36.50;;;18.10;;
18738;SDS011;9498;51.862;19.460;2024-03-22T01:42:04;36.40;;;18.13;;
18738;SDS011;9498;51.862;19.460;2024-03-22T01:44:31;32.37;;;17.00;;
18738;SDS011;9498;51.862;19.460;2024-03-22T01:46:57;34.20;;;19.33;;
18738;SDS011;9498;51.862;19.460;2024-03-22T01:49:23;31.67;;;16.33;;
18738;SDS011;9498;51.862;19.460;2024-03-22T01:51:50;29.10;;;16.00;;
18738;SDS011;9498;51.862;19.460;2024-03-22T01:54:19;33.07;;;15.53;;
18738;SDS011;9498;51.862;19.460;2024-03-22T01:56:45;33.27;;;16.67;;
18738;SDS011;9498;51.862;19.460;2024-03-22T01:59:11;32.77;;;16.57;;
18738;SDS011;9498;51.862;19.460;2024-03-22T02:01:37;34.20;;;16.50;;
18738;SDS011;9498;51.862;19.460;2024-03-22T02:04:03;29.37;;;16.23;;
18738;SDS011;9498;51.862;19.460;2024-03-22T02:06:29;29.33;;;15.53;;
18738;SDS011;9498;51.862;19.460;2024-03-22T02:08:55;33.23;;;16.20;;
18738;SDS011;9498;51.862;19.460;2024-03-22T02:11:24;33.53;;;16.17;;
18738;SDS011;9498;51.862;19.460;2024-03-22T02:13:50;33.40;;;16.90;;
18738;SDS011;9498;51.862;19.460;2024-03-22T02:16:16;36.00;;;20.17;;
18738;SDS011;9498;51.862;19.460;2024-03-22T02:18:42;30.87;;;16.83;;
18738;SDS011;9498;51.862;19.460;2024-03-22T02:21:08;34.23;;;17.47;;
18738;SDS011;9498;51.862;19.460;2024-03-22T02:23:36;31.83;;;16.57;;
18738;SDS011;9498;51.862;19.460;2024-03-22T02:26:03;32.27;;;15.63;;
18738;SDS011;9498;51.862;19.460;2024-03-22T02:28:29;33.70;;;16.20;;
18738;SDS011;9498;51.862;19.460;2024-03-22T02:30:56;27.80;;;15.17;;
18738;SDS011;9498;51.862;19.460;2024-03-22T02:33:21;28.97;;;14.97;;
18738;SDS011;9498;51.862;19.460;2024-03-22T02:35:47;26.10;;;14.27;;
18738;SDS011;9498;51.862;19.460;2024-03-22T02:38:13;25.37;;;13.77;;
18738;SDS011;9498;51.862;19.460;2024-03-22T02:40:42;29.73;;;15.23;;
18738;SDS011;9498;51.862;19.460;2024-03-22T02:43:09;24.10;;;13.73;;
18738;SDS011;9498;51.862;19.460;2024-03-22T02:45:35;27.00;;;13.90;;
18738;SDS011;9498;51.862;19.460;2024-03-22T02:48:01;30.27;;;15.00;;
18738;SDS011;9498;51.862;19.460;2024-03-22T02:50:27;30.93;;;16.13;;
18738;SDS011;9498;51.862;19.460;2024-03-22T02:52:52;27.87;;;14.50;;
18738;SDS011;9498;51.862;19.460;2024-03-22T02:55:18;31.50;;;14.93;;
18738;SDS011;9498;51.862;19.460;2024-03-22T02:57:47;27.47;;;14.40;;
18738;SDS011;9498;51.862;19.460;2024-03-22T03:00:14;30.90;;;16.50;;
18738;SDS011;9498;51.862;19.460;2024-03-22T03:02:40;28.63;;;15.57;;
18738;SDS011;9498;51.862;19.460;2024-03-22T03:05:06;38.93;;;16.30;;
18738;SDS011;9498;51.862;19.460;2024-03-22T03:07:32;35.10;;;19.00;;
18738;SDS011;9498;51.862;19.460;2024-03-22T03:09:58;31.03;;;16.30;;
18738;SDS011;9498;51.862;19.460;2024-03-22T03:12:23;32.60;;;15.93;;
18738;SDS011;9498;51.862;19.460;2024-03-22T03:14:52;30.80;;;16.13;;
18738;SDS011;9498;51.862;19.460;2024-03-22T03:17:18;27.73;;;13.87;;
18738;SDS011;9498;51.862;19.460;2024-03-22T03:19:43;26.97;;;13.20;;
18738;SDS011;9498;51.862;19.460;2024-03-22T03:22:09;31.97;;;14.97;;
18738;SDS011;9498;51.862;19.460;2024-03-22T03:24:35;33.20;;;16.43;;
18738;SDS011;9498;51.862;19.460;2024-03-22T03:27:01;33.10;;;15.13;;
18738;SDS011;9498;51.862;19.460;2024-03-22T03:29:27;27.37;;;14.10;;
18738;SDS011;9498;51.862;19.460;2024-03-22T03:31:55;25.93;;;13.57;;
18738;SDS011;9498;51.862;19.460;2024-03-22T03:34:21;23.47;;;12.70;;
18738;SDS011;9498;51.862;19.460;2024-03-22T03:36:46;20.77;;;11.67;;
18738;SDS011;9498;51.862;19.460;2024-03-22T03:39:12;25.57;;;14.47;;
18738;SDS011;9498;51.862;19.460;2024-03-22T03:41:38;22.27;;;12.87;;
18738;SDS011;9498;51.862;19.460;2024-03-22T03:44:04;21.33;;;11.70;;
18738;SDS011;9498;51.862;19.460;2024-03-22T03:46:30;20.87;;;11.43;;
18738;SDS011;9498;51.862;19.460;2024-03-22T03:48:58;21.20;;;10.80;;
18738;SDS011;9498;51.862;19.460;2024-03-22T03:51:24;25.50;;;12.50;;
18738;SDS011;9498;51.862;19.460;2024-03-22T03:53:50;29.40;;;13.77;;
18738;SDS011;9498;51.862;19.460;2024-03-22T03:56:16;31.00;;;14.90;;
18738;SDS011;9498;51.862;19.460;2024-03-22T03:58:41;34.87;;;15.87;;
18738;SDS011;9498;51.862;19.460;2024-03-22T04:01:07;28.67;;;13.97;;
18738;SDS011;9498;51.862;19.460;2024-03-22T04:03:33;22.97;;;13.23;;
18738;SDS011;9498;51.862;19.460;2024-03-22T04:06:02;21.27;;;11.97;;
18738;SDS011;9498;51.862;19.460;2024-03-22T04:08:28;24.67;;;12.33;;
18738;SDS011;9498;51.862;19.460;2024-03-22T04:10:53;24.73;;;12.43;;
18738;SDS011;9498;51.862;19.460;2024-03-22T04:13:19;30.47;;;14.97;;
18738;SDS011;9498;51.862;19.460;2024-03-22T04:15:45;32.83;;;15.20;;
18738;SDS011;9498;51.862;19.460;2024-03-22T04:18:11;33.75;;;16.92;;
18738;SDS011;9498;51.862;19.460;2024-03-22T04:20:36;30.03;;;14.83;;
18738;SDS011;9498;51.862;19.460;2024-03-22T04:23:05;27.30;;;14.37;;
18738;SDS011;9498;51.862;19.460;2024-03-22T04:25:31;24.30;;;12.87;;
18738;SDS011;9498;51.862;19.460;2024-03-22T04:27:56;24.77;;;13.57;;
18738;SDS011;9498;51.862;19.460;2024-03-22T04:30:22;27.77;;;14.20;;
18738;SDS011;9498;51.862;19.460;2024-03-22T04:32:48;28.63;;;15.40;;
18738;SDS011;9498;51.862;19.460;2024-03-22T04:35:14;24.80;;;13.53;;
18738;SDS011;9498;51.862;19.460;2024-03-22T04:37:40;32.87;;;15.63;;
18738;SDS011;9498;51.862;19.460;2024-03-22T04:40:09;30.47;;;14.90;;
18738;SDS011;9498;51.862;19.460;2024-03-22T04:42:35;30.97;;;14.40;;
18738;SDS011;9498;51.862;19.460;2024-03-22T04:45:01;29.07;;;14.27;;
18738;SDS011;9498;51.862;19.460;2024-03-22T04:47:26;26.87;;;13.73;;
18738;SDS011;9498;51.862;19.460;2024-03-22T04:49:52;20.13;;;10.73;;
18738;SDS011;9498;51.862;19.460;2024-03-22T04:52:18;18.87;;;10.27;;
18738;SDS011;9498;51.862;19.460;2024-03-22T04:54:44;19.07;;;9.83;;
18738;SDS011;9498;51.862;19.460;2024-03-22T04:57:12;23.10;;;10.83;;
18738;SDS011;9498;51.862;19.460;2024-03-22T04:59:38;19.80;;;9.90;;
18738;SDS011;9498;51.862;19.460;2024-03-22T05:02:04;21.23;;;11.60;;
18738;SDS011;9498;51.862;19.460;2024-03-22T05:04:30;21.00;;;11.07;;
18738;SDS011;9498;51.862;19.460;2024-03-22T05:06:55;21.00;;;10.80;;
18738;SDS011;9498;51.862;19.460;2024-03-22T05:09:21;20.83;;;11.57;;
18738;SDS011;9498;51.862;19.460;2024-03-22T05:11:47;23.10;;;11.37;;
18738;SDS011;9498;51.862;19.460;2024-03-22T05:14:16;25.30;;;12.87;;
18738;SDS011;9498;51.862;19.460;2024-03-22T05:16:41;26.27;;;13.00;;
18738;SDS011;9498;51.862;19.460;2024-03-22T05:19:07;23.77;;;13.00;;
18738;SDS011;9498;51.862;19.460;2024-03-22T05:21:33;21.77;;;12.00;;
18738;SDS011;9498;51.862;19.460;2024-03-22T05:23:59;24.07;;;13.67;;
18738;SDS011;9498;51.862;19.460;2024-03-22T05:26:24;24.95;;;14.65;;
18738;SDS011;9498;51.862;19.460;2024-03-22T05:28:50;21.83;;;12.30;;
18738;SDS011;9498;51.862;19.460;2024-03-22T05:31:19;21.60;;;11.43;;
18738;SDS011;9498;51.862;19.460;2024-03-22T05:33:44;20.57;;;11.20;;
18738;SDS011;9498;51.862;19.460;2024-03-22T05:36:10;19.43;;;10.63;;
18738;SDS011;9498;51.862;19.460;2024-03-22T05:38:36;16.53;;;9.77;;
18738;SDS011;9498;51.862;19.460;2024-03-22T05:41:03;18.83;;;10.20;;
18738;SDS011;9498;51.862;19.460;2024-03-22T05:43:29;18.67;;;10.40;;
18738;SDS011;9498;51.862;19.460;2024-03-22T05:45:55;20.80;;;11.40;;
18738;SDS011;9498;51.862;19.460;2024-03-22T05:48:23;25.33;;;12.83;;
18738;SDS011;9498;51.862;19.460;2024-03-22T05:50:49;26.13;;;13.20;;
18738;SDS011;9498;51.862;19.460;2024-03-22T05:53:15;24.57;;;13.13;;
18738;SDS011;9498;51.862;19.460;2024-03-22T05:55:40;23.90;;;12.40;;
18738;SDS011;9498;51.862;19.460;2024-03-22T05:58:06;25.53;;;13.47;;
18738;SDS011;9498;51.862;19.460;2024-03-22T06:00:32;22.47;;;12.37;;
18738;SDS011;9498;51.862;19.460;2024-03-22T06:02:57;25.37;;;11.97;;
18738;SDS011;9498;51.862;19.460;2024-03-22T06:05:26;22.60;;;12.37;;
18738;SDS011;9498;51.862;19.460;2024-03-22T06:07:52;28.30;;;13.43;;
18738;SDS011;9498;51.862;19.460;2024-03-22T06:10:17;23.77;;;12.27;;
18738;SDS011;9498;51.862;19.460;2024-03-22T06:12:43;33.10;;;15.30;;
18738;SDS011;9498;51.862;19.460;2024-03-22T06:15:10;31.53;;;15.17;;
18738;SDS011;9498;51.862;19.460;2024-03-22T06:17:35;35.00;;;16.73;;
18738;SDS011;9498;51.862;19.460;2024-03-22T06:20:01;39.30;;;17.00;;
18738;SDS011;9498;51.862;19.460;2024-03-22T06:22:29;32.23;;;15.43;;
18738;SDS011;9498;51.862;19.460;2024-03-22T06:24:55;31.30;;;15.97;;
18738;SDS011;9498;51.862;19.460;2024-03-22T06:27:21;31.17;;;14.33;;
18738;SDS011;9498;51.862;19.460;2024-03-22T06:29:47;27.40;;;14.53;;
18738;SDS011;9498;51.862;19.460;2024-03-22T06:32:13;25.73;;;14.00;;
18738;SDS011;9498;51.862;19.460;2024-03-22T06:34:39;29.53;;;15.07;;
18738;SDS011;9498;51.862;19.460;2024-03-22T06:37:04;33.83;;;17.53;;
18738;SDS011;9498;51.862;19.460;2024-03-22T06:39:33;29.63;;;16.57;;
18738;SDS011;9498;51.862;19.460;2024-03-22T06:41:58;31.07;;;15.73;;
18738;SDS011;9498;51.862;19.460;2024-03-22T06:44:24;31.97;;;17.13;;
18738;SDS011;9498;51.862;19.460;2024-03-22T06:46:51;31.40;;;16.37;;
18738;SDS011;9498;51.862;19.460;2024-03-22T06:49:16;29.67;;;16.10;;
18738;SDS011;9498;51.862;19.460;2024-03-22T06:51:42;30.50;;;16.10;;
18738;SDS011;9498;51.862;19.460;2024-03-22T06:54:08;28.70;;;16.47;;
18738;SDS011;9498;51.862;19.460;2024-03-22T06:56:38;27.60;;;15.60;;
18738;SDS011;9498;51.862;19.460;2024-03-22T06:59:03;29.30;;;15.90;;
18738;SDS011;9498;51.862;19.460;2024-03-22T07:01:29;30.13;;;16.17;;
18738;SDS011;9498;51.862;19.460;2024-03-22T07:03:55;30.30;;;14.93;;
18738;SDS011;9498;51.862;19.460;2024-03-22T07:06:21;27.40;;;14.93;;
18738;SDS011;9498;51.862;19.460;2024-03-22T07:08:46;26.70;;;14.47;;
18738;SDS011;9498;51.862;19.460;2024-03-22T07:11:12;28.83;;;15.13;;
18738;SDS011;9498;51.862;19.460;2024-03-22T07:13:41;31.30;;;14.63;;
18738;SDS011;9498;51.862;19.460;2024-03-22T07:16:06;26.17;;;13.33;;
18738;SDS011;9498;51.862;19.460;2024-03-22T07:18:32;26.00;;;13.10;;
18738;SDS011;9498;51.862;19.460;2024-03-22T07:20:58;26.03;;;11.70;;
18738;SDS011;9498;51.862;19.460;2024-03-22T07:23:24;23.37;;;12.20;;
18738;SDS011;9498;51.862;19.460;2024-03-22T07:25:50;21.67;;;11.70;;
18738;SDS011;9498;51.862;19.460;2024-03-22T07:28:16;20.13;;;10.93;;
18738;SDS011;9498;51.862;19.460;2024-03-22T07:30:44;24.40;;;11.33;;
18738;SDS011;9498;51.862;19.460;2024-03-22T07:33:10;18.30;;;10.03;;
18738;SDS011;9498;51.862;19.460;2024-03-22T07:35:36;18.00;;;8.87;;
18738;SDS011;9498;51.862;19.460;2024-03-22T07:38:02;19.10;;;8.70;;
18738;SDS011;9498;51.862;19.460;2024-03-22T07:40:28;16.67;;;8.60;;
18738;SDS011;9498;51.862;19.460;2024-03-22T07:42:53;20.60;;;9.77;;
18738;SDS011;9498;51.862;19.460;2024-03-22T07:45:19;18.63;;;8.97;;
18738;SDS011;9498;51.862;19.460;2024-03-22T07:47:47;20.10;;;9.57;;
18738;SDS011;9498;51.862;19.460;2024-03-22T07:50:13;17.20;;;9.27;;
18738;SDS011;9498;51.862;19.460;2024-03-22T07:52:39;22.20;;;10.83;;
18738;SDS011;9498;51.862;19.460;2024-03-22T07:55:05;20.50;;;10.83;;
18738;SDS011;9498;51.862;19.460;2024-03-22T07:57:31;23.40;;;10.40;;
18738;SDS011;9498;51.862;19.460;2024-03-22T07:59:56;20.77;;;9.87;;
18738;SDS011;9498;51.862;19.460;2024-03-22T08:02:22;19.13;;;9.63;;
18738;SDS011;9498;51.862;19.460;2024-03-22T08:04:51;20.77;;;10.70;;
18738;SDS011;9498;51.862;19.460;2024-03-22T08:07:16;19.63;;;9.40;;
18738;SDS011;9498;51.862;19.460;2024-03-22T08:09:42;15.57;;;7.23;;
18738;SDS011;9498;51.862;19.460;2024-03-22T08:12:08;14.70;;;7.47;;
18738;SDS011;9498;51.862;19.460;2024-03-22T08:14:34;17.20;;;9.27;;
18738;SDS011;9498;51.862;19.460;2024-03-22T08:17:00;18.63;;;9.13;;
18738;SDS011;9498;51.862;19.460;2024-03-22T08:19:25;23.43;;;11.13;;
18738;SDS011;9498;51.862;19.460;2024-03-22T08:21:54;22.80;;;11.30;;
18738;SDS011;9498;51.862;19.460;2024-03-22T08:24:20;24.20;;;11.80;;
18738;SDS011;9498;51.862;19.460;2024-03-22T08:26:45;23.93;;;12.07;;
18738;SDS011;9498;51.862;19.460;2024-03-22T08:29:11;23.73;;;11.30;;
18738;SDS011;9498;51.862;19.460;2024-03-22T08:31:37;24.20;;;11.87;;
18738;SDS011;9498;51.862;19.460;2024-03-22T08:34:03;19.53;;;11.00;;
18738;SDS011;9498;51.862;19.460;2024-03-22T08:36:29;19.97;;;10.63;;
18738;SDS011;9498;51.862;19.460;2024-03-22T08:38:57;20.80;;;11.00;;
18738;SDS011;9498;51.862;19.460;2024-03-22T08:41:23;22.00;;;11.47;;
18738;SDS011;9498;51.862;19.460;2024-03-22T08:43:49;21.87;;;10.87;;
18738;SDS011;9498;51.862;19.460;2024-03-22T08:46:14;21.00;;;11.20;;
18738;SDS011;9498;51.862;19.460;2024-03-22T08:48:40;20.70;;;11.07;;
18738;SDS011;9498;51.862;19.460;2024-03-22T08:51:06;23.23;;;11.40;;
18738;SDS011;9498;51.862;19.460;2024-03-22T08:53:32;24.03;;;12.87;;
18738;SDS011;9498;51.862;19.460;2024-03-22T08:56:00;24.37;;;12.67;;
18738;SDS011;9498;51.862;19.460;2024-03-22T08:58:26;22.23;;;11.50;;
18738;SDS011;9498;51.862;19.460;2024-03-22T09:00:52;21.93;;;11.87;;
18738;SDS011;9498;51.862;19.460;2024-03-22T09:03:18;21.83;;;12.30;;
18738;SDS011;9498;51.862;19.460;2024-03-22T09:05:43;23.30;;;12.53;;
18738;SDS011;9498;51.862;19.460;2024-03-22T09:08:09;26.13;;;13.03;;
18738;SDS011;9498;51.862;19.460;2024-03-22T09:10:35;24.67;;;13.33;;
18738;SDS011;9498;51.862;19.460;2024-03-22T09:13:03;25.83;;;13.93;;
18738;SDS011;9498;51.862;19.460;2024-03-22T09:15:29;23.90;;;13.67;;
18738;SDS011;9498;51.862;19.460;2024-03-22T09:17:55;27.70;;;14.33;;
18738;SDS011;9498;51.862;19.460;2024-03-22T09:20:21;27.73;;;15.47;;
18738;SDS011;9498;51.862;19.460;2024-03-22T09:22:46;28.33;;;14.73;;
18738;SDS011;9498;51.862;19.460;2024-03-22T09:25:13;32.70;;;15.83;;
18738;SDS011;9498;51.862;19.460;2024-03-22T09:27:39;33.20;;;16.77;;
18738;SDS011;9498;51.862;19.460;2024-03-22T09:30:08;32.20;;;15.57;;
18738;SDS011;9498;51.862;19.460;2024-03-22T09:32:33;32.33;;;16.40;;
18738;SDS011;9498;51.862;19.460;2024-03-22T09:34:59;28.07;;;14.87;;
18738;SDS011;9498;51.862;19.460;2024-03-22T09:37:25;30.10;;;15.27;;
18738;SDS011;9498;51.862;19.460;2024-03-22T09:39:51;30.27;;;15.37;;
18738;SDS011;9498;51.862;19.460;2024-03-22T09:42:17;31.17;;;15.80;;
18738;SDS011;9498;51.862;19.460;2024-03-22T09:44:44;28.57;;;14.63;;
18738;SDS011;9498;51.862;19.460;2024-03-22T09:47:16;29.57;;;14.43;;
18738;SDS011;9498;51.862;19.460;2024-03-22T09:49:42;32.43;;;15.80;;
18738;SDS011;9498;51.862;19.460;2024-03-22T09:52:08;34.33;;;15.80;;
18738;SDS011;9498;51.862;19.460;2024-03-22T09:54:34;30.07;;;16.03;;
18738;SDS011;9498;51.862;19.460;2024-03-22T09:57:00;32.00;;;17.73;;
18738;SDS011;9498;51.862;19.460;2024-03-22T09:59:26;33.27;;;16.80;;
18738;SDS011;9498;51.862;19.460;2024-03-22T10:01:52;29.17;;;15.90;;
18738;SDS011;9498;51.862;19.460;2024-03-22T10:04:21;29.00;;;15.67;;
18738;SDS011;9498;51.862;19.460;2024-03-22T10:06:47;33.40;;;15.77;;
18738;SDS011;9498;51.862;19.460;2024-03-22T10:09:13;30.27;;;15.60;;
18738;SDS011;9498;51.862;19.460;2024-03-22T10:11:38;30.37;;;14.60;;
18738;SDS011;9498;51.862;19.460;2024-03-22T10:14:04;29.57;;;15.17;;
18738;SDS011;9498;51.862;19.460;2024-03-22T10:16:32;27.70;;;14.93;;
18738;SDS011;9498;51.862;19.460;2024-03-22T10:18:59;25.77;;;13.83;;
18738;SDS011;9498;51.862;19.460;2024-03-22T10:21:27;25.87;;;14.40;;
18738;SDS011;9498;51.862;19.460;2024-03-22T10:23:53;24.20;;;13.00;;
18738;SDS011;9498;51.862;19.460;2024-03-22T10:26:19;23.73;;;13.20;;
18738;SDS011;9498;51.862;19.460;2024-03-22T10:28:45;25.77;;;13.53;;
18738;SDS011;9498;51.862;19.460;2024-03-22T10:31:11;23.73;;;13.10;;
18738;SDS011;9498;51.862;19.460;2024-03-22T10:33:37;22.97;;;12.33;;
18738;SDS011;9498;51.862;19.460;2024-03-22T10:36:04;26.87;;;13.23;;
18738;SDS011;9498;51.862;19.460;2024-03-22T10:38:32;25.33;;;12.97;;
18738;SDS011;9498;51.862;19.460;2024-03-22T10:40:59;25.43;;;14.07;;
18738;SDS011;9498;51.862;19.460;2024-03-22T10:43:25;29.10;;;14.33;;
18738;SDS011;9498;51.862;19.460;2024-03-22T10:45:53;32.17;;;15.70;;
18738;SDS011;9498;51.862;19.460;2024-03-22T10:48:24;30.97;;;15.73;;
18738;SDS011;9498;51.862;19.460;2024-03-22T10:50:50;32.87;;;16.63;;
18738;SDS011;9498;51.862;19.460;2024-03-22T10:53:18;33.03;;;16.50;;
18738;SDS011;9498;51.862;19.460;2024-03-22T10:55:47;34.27;;;17.90;;
18738;SDS011;9498;51.862;19.460;2024-03-22T10:58:14;38.30;;;18.23;;
18738;SDS011;9498;51.862;19.460;2024-03-22T11:00:41;36.60;;;18.67;;
18738;SDS011;9498;51.862;19.460;2024-03-22T11:03:07;36.10;;;17.53;;
18738;SDS011;9498;51.862;19.460;2024-03-22T11:05:33;35.70;;;18.47;;
18738;SDS011;9498;51.862;19.460;2024-03-22T11:07:59;37.53;;;18.37;;
18738;SDS011;9498;51.862;19.460;2024-03-22T11:10:26;37.57;;;19.27;;
18738;SDS011;9498;51.862;19.460;2024-03-22T11:12:54;37.27;;;18.10;;
18738;SDS011;9498;51.862;19.460;2024-03-22T11:15:20;33.97;;;18.03;;
18738;SDS011;9498;51.862;19.460;2024-03-22T11:17:45;35.43;;;17.07;;
18738;SDS011;9498;51.862;19.460;2024-03-22T11:20:11;34.63;;;17.93;;
18738;SDS011;9498;51.862;19.460;2024-03-22T11:22:37;30.20;;;16.07;;
18738;SDS011;9498;51.862;19.460;2024-03-22T11:25:03;32.50;;;16.60;;
18738;SDS011;9498;51.862;19.460;2024-03-22T11:27:29;32.10;;;15.97;;
18738;SDS011;9498;51.862;19.460;2024-03-22T11:29:57;32.47;;;17.30;;
18738;SDS011;9498;51.862;19.460;2024-03-22T11:32:23;32.87;;;16.80;;
18738;SDS011;9498;51.862;19.460;2024-03-22T11:34:49;34.17;;;17.43;;
18738;SDS011;9498;51.862;19.460;2024-03-22T11:37:15;39.20;;;21.37;;
18738;SDS011;9498;51.862;19.460;2024-03-22T11:39:40;33.33;;;17.43;;
18738;SDS011;9498;51.862;19.460;2024-03-22T11:42:06;35.83;;;19.50;;
18738;SDS011;9498;51.862;19.460;2024-03-22T11:44:33;34.77;;;17.37;;
18738;SDS011;9498;51.862;19.460;2024-03-22T11:47:03;29.83;;;15.57;;
18738;SDS011;9498;51.862;19.460;2024-03-22T11:49:29;32.13;;;16.90;;
18738;SDS011;9498;51.862;19.460;2024-03-22T11:51:55;35.63;;;17.80;;
18738;SDS011;9498;51.862;19.460;2024-03-22T11:54:21;28.97;;;15.70;;
18738;SDS011;9498;51.862;19.460;2024-03-22T11:56:48;33.87;;;16.87;;
18738;SDS011;9498;51.862;19.460;2024-03-22T11:59:13;30.23;;;16.87;;
18738;SDS011;9498;51.862;19.460;2024-03-22T12:01:40;33.10;;;17.73;;
18738;SDS011;9498;51.862;19.460;2024-03-22T12:04:08;33.70;;;17.77;;
18738;SDS011;9498;51.862;19.460;2024-03-22T12:06:34;34.03;;;17.67;;
18738;SDS011;9498;51.862;19.460;2024-03-22T12:09:00;36.13;;;17.93;;
18738;SDS011;9498;51.862;19.460;2024-03-22T12:11:26;32.27;;;16.97;;
18738;SDS011;9498;51.862;19.460;2024-03-22T12:13:52;31.67;;;16.30;;
18738;SDS011;9498;51.862;19.460;2024-03-22T12:16:18;31.03;;;15.47;;
18738;SDS011;9498;51.862;19.460;2024-03-22T12:18:44;28.30;;;15.20;;
18738;SDS011;9498;51.862;19.460;2024-03-22T12:21:12;30.97;;;15.50;;
18738;SDS011;9498;51.862;19.460;2024-03-22T12:23:38;30.43;;;15.13;;
18738;SDS011;9498;51.862;19.460;2024-03-22T12:26:04;25.77;;;14.17;;
18738;SDS011;9498;51.862;19.460;2024-03-22T12:28:29;26.23;;;13.93;;
18738;SDS011;9498;51.862;19.460;2024-03-22T12:30:55;28.20;;;14.73;;
18738;SDS011;9498;51.862;19.460;2024-03-22T12:33:21;24.87;;;13.53;;
18738;SDS011;9498;51.862;19.460;2024-03-22T12:35:47;28.17;;;14.23;;
18738;SDS011;9498;51.862;19.460;2024-03-22T12:38:16;25.30;;;14.50;;
18738;SDS011;9498;51.862;19.460;2024-03-22T12:40:41;29.33;;;14.60;;
18738;SDS011;9498;51.862;19.460;2024-03-22T12:43:09;25.43;;;13.90;;
18738;SDS011;9498;51.862;19.460;2024-03-22T12:45:34;25.73;;;14.07;;
18738;SDS011;9498;51.862;19.460;2024-03-22T12:48:00;26.93;;;13.97;;
18738;SDS011;9498;51.862;19.460;2024-03-22T12:50:26;25.67;;;14.33;;
18738;SDS011;9498;51.862;19.460;2024-03-22T12:52:52;28.20;;;14.53;;
18738;SDS011;9498;51.862;19.460;2024-03-22T12:55:21;29.20;;;15.27;;
18738;SDS011;9498;51.862;19.460;2024-03-22T12:57:47;27.10;;;15.07;;
18738;SDS011;9498;51.862;19.460;2024-03-22T13:00:13;28.77;;;15.47;;
18738;SDS011;9498;51.862;19.460;2024-03-22T13:02:42;27.23;;;14.90;;
18738;SDS011;9498;51.862;19.460;2024-03-22T13:05:08;27.93;;;14.73;;
18738;SDS011;9498;51.862;19.460;2024-03-22T13:07:35;29.65;;;17.67;;
18738;SDS011;9498;51.862;19.460;2024-03-22T13:10:02;28.97;;;16.60;;
18738;SDS011;9498;51.862;19.460;2024-03-22T13:12:32;29.20;;;15.90;;
18738;SDS011;9498;51.862;19.460;2024-03-22T13:14:57;28.90;;;15.90;;
18738;SDS011;9498;51.862;19.460;2024-03-22T13:17:23;30.17;;;17.77;;
18738;SDS011;9498;51.862;19.460;2024-03-22T13:19:49;28.93;;;17.03;;
18738;SDS011;9498;51.862;19.460;2024-03-22T13:22:15;30.87;;;17.07;;
18738;SDS011;9498;51.862;19.460;2024-03-22T13:24:41;31.07;;;17.47;;
18738;SDS011;9498;51.862;19.460;2024-03-22T13:27:07;28.13;;;16.37;;
18738;SDS011;9498;51.862;19.460;2024-03-22T13:29:36;29.80;;;16.50;;
18738;SDS011;9498;51.862;19.460;2024-03-22T13:32:02;33.00;;;17.63;;
18738;SDS011;9498;51.862;19.460;2024-03-22T13:34:27;29.43;;;16.13;;
18738;SDS011;9498;51.862;19.460;2024-03-22T13:36:53;32.57;;;16.90;;
18738;SDS011;9498;51.862;19.460;2024-03-22T13:39:19;30.57;;;17.30;;
18738;SDS011;9498;51.862;19.460;2024-03-22T13:41:45;31.23;;;16.87;;
18738;SDS011;9498;51.862;19.460;2024-03-22T13:44:11;30.47;;;16.83;;
18738;SDS011;9498;51.862;19.460;2024-03-22T13:46:39;32.17;;;16.70;;
18738;SDS011;9498;51.862;19.460;2024-03-22T13:49:05;28.87;;;15.80;;
18738;SDS011;9498;51.862;19.460;2024-03-22T13:51:38;27.93;;;15.67;;
18738;SDS011;9498;51.862;19.460;2024-03-22T13:54:04;30.13;;;16.33;;
18738;SDS011;9498;51.862;19.460;2024-03-22T13:56:30;29.97;;;16.47;;
18738;SDS011;9498;51.862;19.460;2024-03-22T13:58:55;30.90;;;16.70;;
18738;SDS011;9498;51.862;19.460;2024-03-22T14:01:21;28.97;;;15.77;;
18738;SDS011;9498;51.862;19.460;2024-03-22T14:03:49;29.03;;;15.90;;
18738;SDS011;9498;51.862;19.460;2024-03-22T14:06:15;30.60;;;16.37;;
18738;SDS011;9498;51.862;19.460;2024-03-22T14:08:41;31.20;;;15.30;;
18738;SDS011;9498;51.862;19.460;2024-03-22T14:11:07;31.87;;;15.70;;
18738;SDS011;9498;51.862;19.460;2024-03-22T14:13:33;29.00;;;15.47;;
18738;SDS011;9498;51.862;19.460;2024-03-22T14:15:58;33.43;;;16.77;;